sensor_id;sensor_type;location;lat;lon;timestamp;pressure;altitude;pressure_sealevel;temperature;humidity
24031;BME280;12240;51.142;22.486;2023-03-23T00:01:20;98913.31;;;8.35;100.00
24031;BME280;12240;51.142;22.486;2023-03-23T00:06:18;98858.06;;;7.85;100.00
24031;BME280;12240;51.142;22.486;2023-03-23T00:08:52;98921.22;;;8.17;100.00
24031;BME280;12240;51.142;22.486;2023-03-23T00:11:26;98919.00;;;8.12;100.00
24031;BME280;12240;51.142;22.486;2023-03-23T00:14:01;98917.94;;;8.05;100.00
24031;BME280;12240;51.142;22.486;2023-03-23T00:17:44;98894.84;;;7.88;100.00
24031;BME280;12240;51.142;22.486;2023-03-23T00:20:12;98916.28;;;8.04;100.00
24031;BME280;12240;51.142;22.486;2023-03-23T00:22:39;98917.16;;;7.95;100.00
24031;BME280;12240;51.142;22.486;2023-03-23T10:15:40;98777.97;;;16.02;100.00
24031;BME280;12240;51.142;22.486;2023-03-23T10:17:54;98771.53;;;15.97;100.00
24031;BME280;12240;51.142;22.486;2023-03-23T10:24:01;98784.09;;;15.90;100.00
24031;BME280;12240;51.142;22.486;2023-03-23T10:28:32;98778.28;;;15.86;100.00
24031;BME280;12240;51.142;22.486;2023-03-23T10:31:02;98778.31;;;15.93;100.00
24031;BME280;12240;51.142;22.486;2023-03-23T10:33:43;98771.13;;;16.06;100.00
24031;BME280;12240;51.142;22.486;2023-03-23T10:39:22;98679.16;;;15.38;100.00
24031;BME280;12240;51.142;22.486;2023-03-23T10:44:07;98771.94;;;15.94;100.00
24031;BME280;12240;51.142;22.486;2023-03-23T10:49:19;98776.34;;;16.08;100.00
24031;BME280;12240;51.142;22.486;2023-03-23T10:53:51;98776.72;;;16.05;100.00
24031;BME280;12240;51.142;22.486;2023-03-23T10:56:35;98766.34;;;15.89;100.00
24031;BME280;12240;51.142;22.486;2023-03-23T10:59:21;98760.97;;;15.89;100.00
24031;BME280;12240;51.142;22.486;2023-03-23T11:01:55;98761.19;;;15.94;100.00
24031;BME280;12240;51.142;22.486;2023-03-23T11:04:25;98763.25;;;15.98;100.00
24031;BME280;12240;51.142;22.486;2023-03-23T11:06:58;98759.53;;;15.93;100.00
24031;BME280;12240;51.142;22.486;2023-03-23T11:09:52;98721.81;;;15.60;100.00
24031;BME280;12240;51.142;22.486;2023-03-23T11:12:24;98764.25;;;15.84;100.00
24031;BME280;12240;51.142;22.486;2023-03-23T11:14:51;98764.66;;;15.81;100.00
24031;BME280;12240;51.142;22.486;2023-03-23T11:17:26;98767.34;;;15.88;100.00
24031;BME280;12240;51.142;22.486;2023-03-23T11:19:55;98767.63;;;15.99;100.00
24031;BME280;12240;51.142;22.486;2023-03-23T11:22:31;98755.00;;;16.00;100.00
24031;BME280;12240;51.142;22.486;2023-03-23T11:27:34;98734.00;;;16.16;100.00
24031;BME280;12240;51.142;22.486;2023-03-23T11:30:11;98744.97;;;16.41;100.00
24031;BME280;12240;51.142;22.486;2023-03-23T11:32:44;98744.22;;;16.54;100.00
24031;BME280;12240;51.142;22.486;2023-03-23T11:35:18;98735.31;;;16.60;100.00
24031;BME280;12240;51.142;22.486;2023-03-23T11:37:58;98732.22;;;16.76;100.00
24031;BME280;12240;51.142;22.486;2023-03-23T11:40:47;98723.97;;;16.90;100.00
24031;BME280;12240;51.142;22.486;2023-03-23T11:43:23;98722.69;;;16.99;100.00
24031;BME280;12240;51.142;22.486;2023-03-23T11:46:05;98717.94;;;16.88;100.00
24031;BME280;12240;51.142;22.486;2023-03-23T11:48:57;98704.28;;;16.70;100.00
24031;BME280;12240;51.142;22.486;2023-03-23T11:58:19;98714.81;;;16.98;100.00
24031;BME280;12240;51.142;22.486;2023-03-23T12:00:56;98712.75;;;17.06;100.00
24031;BME280;12240;51.142;22.486;2023-03-23T12:06:07;98708.56;;;17.23;100.00
24031;BME280;12240;51.142;22.486;2023-03-23T12:11:51;98680.16;;;17.54;100.00
24031;BME280;12240;51.142;22.486;2023-03-23T12:23:00;98649.13;;;18.94;100.00
24031;BME280;12240;51.142;22.486;2023-03-23T12:25:52;98649.78;;;19.32;100.00
24031;BME280;12240;51.142;22.486;2023-03-23T12:28:50;98632.00;;;19.42;100.00
24031;BME280;12240;51.142;22.486;2023-03-23T12:47:40;98647.31;;;18.45;100.00
24031;BME280;12240;51.142;22.486;2023-03-23T12:50:36;98645.72;;;18.31;100.00
24031;BME280;12240;51.142;22.486;2023-03-23T12:53:27;98642.81;;;18.32;100.00
24031;BME280;12240;51.142;22.486;2023-03-23T12:59:03;98644.56;;;18.20;100.00
24031;BME280;12240;51.142;22.486;2023-03-23T13:01:40;98641.91;;;18.14;100.00
24031;BME280;12240;51.142;22.486;2023-03-23T13:04:16;98627.94;;;18.23;100.00
24031;BME280;12240;51.142;22.486;2023-03-23T13:06:47;98622.31;;;18.25;100.00
24031;BME280;12240;51.142;22.486;2023-03-23T13:09:37;98619.91;;;18.17;100.00
24031;BME280;12240;51.142;22.486;2023-03-23T13:12:09;98610.13;;;18.22;100.00
24031;BME280;12240;51.142;22.486;2023-03-23T13:28:22;98579.16;;;18.07;100.00
24031;BME280;12240;51.142;22.486;2023-03-23T13:31:11;98579.09;;;18.13;100.00
24031;BME280;12240;51.142;22.486;2023-03-23T13:33:46;98574.59;;;18.32;100.00
24031;BME280;12240;51.142;22.486;2023-03-23T13:36:26;98580.56;;;18.40;100.00
24031;BME280;12240;51.142;22.486;2023-03-23T13:38:54;98572.59;;;18.52;100.00
24031;BME280;12240;51.142;22.486;2023-03-23T13:41:23;98587.75;;;18.71;100.00
24031;BME280;12240;51.142;22.486;2023-03-23T13:43:51;98581.47;;;18.95;100.00
24031;BME280;12240;51.142;22.486;2023-03-23T13:49:03;98547.13;;;18.66;100.00
24031;BME280;12240;51.142;22.486;2023-03-23T14:01:57;98580.91;;;18.50;100.00
24031;BME280;12240;51.142;22.486;2023-03-23T14:04:46;98580.66;;;18.27;100.00
24031;BME280;12240;51.142;22.486;2023-03-23T14:07:17;98581.09;;;18.00;100.00
24031;BME280;12240;51.142;22.486;2023-03-23T14:09:46;98579.31;;;17.87;100.00
24031;BME280;12240;51.142;22.486;2023-03-23T14:12:27;98575.03;;;17.73;100.00
24031;BME280;12240;51.142;22.486;2023-03-23T14:15:02;98568.91;;;17.60;100.00
24031;BME280;12240;51.142;22.486;2023-03-23T14:17:44;98574.34;;;17.53;100.00
24031;BME280;12240;51.142;22.486;2023-03-23T14:20:33;98574.81;;;17.37;100.00
24031;BME280;12240;51.142;22.486;2023-03-23T14:23:01;98572.38;;;17.29;100.00
24031;BME280;12240;51.142;22.486;2023-03-23T14:25:30;98561.84;;;17.21;100.00
24031;BME280;12240;51.142;22.486;2023-03-23T14:27:59;98565.00;;;17.18;100.00
24031;BME280;12240;51.142;22.486;2023-03-23T14:36:38;98553.22;;;17.12;100.00
24031;BME280;12240;51.142;22.486;2023-03-23T14:39:21;98559.22;;;17.08;100.00
24031;BME280;12240;51.142;22.486;2023-03-23T14:41:50;98557.34;;;17.08;100.00
24031;BME280;12240;51.142;22.486;2023-03-23T14:44:31;98555.69;;;17.14;100.00
24031;BME280;12240;51.142;22.486;2023-03-23T14:47:02;98564.41;;;17.09;100.00
24031;BME280;12240;51.142;22.486;2023-03-23T14:49:39;98556.91;;;17.11;100.00
24031;BME280;12240;51.142;22.486;2023-03-23T14:52:16;98565.56;;;17.20;100.00
24031;BME280;12240;51.142;22.486;2023-03-23T14:54:45;98550.78;;;17.42;100.00
24031;BME280;12240;51.142;22.486;2023-03-23T14:59:47;98559.78;;;17.16;100.00
24031;BME280;12240;51.142;22.486;2023-03-23T15:12:28;98537.38;;;17.29;100.00
24031;BME280;12240;51.142;22.486;2023-03-23T15:15:03;98538.66;;;17.20;100.00
24031;BME280;12240;51.142;22.486;2023-03-23T15:17:37;98538.72;;;17.13;100.00
24031;BME280;12240;51.142;22.486;2023-03-23T15:20:46;98536.19;;;17.18;100.00
24031;BME280;12240;51.142;22.486;2023-03-23T15:23:07;98535.41;;;17.11;100.00
24031;BME280;12240;51.142;22.486;2023-03-23T15:25:35;98539.75;;;17.12;100.00
24031;BME280;12240;51.142;22.486;2023-03-23T15:28:29;98551.13;;;17.14;100.00
24031;BME280;12240;51.142;22.486;2023-03-23T15:31:04;98548.66;;;17.06;100.00
24031;BME280;12240;51.142;22.486;2023-03-23T15:33:36;98555.75;;;17.01;100.00
24031;BME280;12240;51.142;22.486;2023-03-23T15:36:15;98559.25;;;17.01;100.00
24031;BME280;12240;51.142;22.486;2023-03-23T15:38:47;98552.81;;;17.09;100.00
24031;BME280;12240;51.142;22.486;2023-03-23T15:41:26;98556.13;;;17.04;100.00
24031;BME280;12240;51.142;22.486;2023-03-23T15:43:56;98557.81;;;16.99;100.00
24031;BME280;12240;51.142;22.486;2023-03-23T15:46:29;98563.00;;;16.87;100.00
24031;BME280;12240;51.142;22.486;2023-03-23T15:51:30;98567.81;;;16.85;100.00
24031;BME280;12240;51.142;22.486;2023-03-23T15:53:57;98572.97;;;16.74;100.00
24031;BME280;12240;51.142;22.486;2023-03-23T15:56:25;98572.81;;;16.62;100.00
24031;BME280;12240;51.142;22.486;2023-03-23T15:58:53;98578.63;;;16.59;100.00
24031;BME280;12240;51.142;22.486;2023-03-23T16:01:25;98587.91;;;16.50;100.00
24031;BME280;12240;51.142;22.486;2023-03-23T16:04:10;98597.59;;;16.45;100.00
24031;BME280;12240;51.142;22.486;2023-03-23T16:06:39;98604.03;;;16.44;100.00
24031;BME280;12240;51.142;22.486;2023-03-23T16:09:13;98606.31;;;16.40;100.00
24031;BME280;12240;51.142;22.486;2023-03-23T16:11:42;98605.69;;;16.38;100.00
24031;BME280;12240;51.142;22.486;2023-03-23T16:14:11;98606.28;;;16.27;100.00
24031;BME280;12240;51.142;22.486;2023-03-23T16:16:46;98606.31;;;16.14;100.00
24031;BME280;12240;51.142;22.486;2023-03-23T16:19:18;98603.81;;;15.99;100.00
24031;BME280;12240;51.142;22.486;2023-03-23T16:21:51;98623.44;;;16.00;100.00
24031;BME280;12240;51.142;22.486;2023-03-23T16:24:19;98619.69;;;15.88;100.00
24031;BME280;12240;51.142;22.486;2023-03-23T16:26:48;98622.56;;;15.80;100.00
24031;BME280;12240;51.142;22.486;2023-03-23T16:29:17;98623.38;;;15.74;100.00
24031;BME280;12240;51.142;22.486;2023-03-23T16:32:06;98622.31;;;15.62;100.00
24031;BME280;12240;51.142;22.486;2023-03-23T16:34:34;98623.94;;;15.50;100.00
24031;BME280;12240;51.142;22.486;2023-03-23T16:37:04;98630.53;;;15.41;100.00
24031;BME280;12240;51.142;22.486;2023-03-23T16:39:34;98625.06;;;15.34;100.00
24031;BME280;12240;51.142;22.486;2023-03-23T16:42:05;98627.09;;;15.26;100.00
24031;BME280;12240;51.142;22.486;2023-03-23T16:44:36;98635.53;;;15.16;100.00
24031;BME280;12240;51.142;22.486;2023-03-23T16:47:10;98632.00;;;15.09;100.00
24031;BME280;12240;51.142;22.486;2023-03-23T16:49:50;98628.47;;;15.08;100.00
24031;BME280;12240;51.142;22.486;2023-03-23T16:52:18;98633.81;;;15.02;100.00
24031;BME280;12240;51.142;22.486;2023-03-23T16:54:48;98635.38;;;14.90;100.00
24031;BME280;12240;51.142;22.486;2023-03-23T16:57:16;98647.50;;;14.79;100.00
24031;BME280;12240;51.142;22.486;2023-03-23T16:59:45;98636.97;;;14.78;100.00
24031;BME280;12240;51.142;22.486;2023-03-23T17:02:14;98640.25;;;14.73;100.00
24031;BME280;12240;51.142;22.486;2023-03-23T17:04:44;98646.19;;;14.69;100.00
24031;BME280;12240;51.142;22.486;2023-03-23T17:07:13;98659.53;;;14.62;100.00
24031;BME280;12240;51.142;22.486;2023-03-23T17:09:48;98645.06;;;14.57;100.00
24031;BME280;12240;51.142;22.486;2023-03-23T17:12:17;98653.50;;;14.54;100.00
24031;BME280;12240;51.142;22.486;2023-03-23T17:14:47;98662.75;;;14.51;100.00
24031;BME280;12240;51.142;22.486;2023-03-23T17:17:15;98656.97;;;14.48;100.00
24031;BME280;12240;51.142;22.486;2023-03-23T17:19:44;98661.69;;;14.46;100.00
24031;BME280;12240;51.142;22.486;2023-03-23T17:22:12;98658.56;;;14.42;100.00
24031;BME280;12240;51.142;22.486;2023-03-23T17:24:41;98664.13;;;14.41;100.00
24031;BME280;12240;51.142;22.486;2023-03-23T17:27:09;98659.97;;;14.38;100.00
24031;BME280;12240;51.142;22.486;2023-03-23T17:29:42;98674.38;;;14.37;100.00
24031;BME280;12240;51.142;22.486;2023-03-23T17:32:12;98665.72;;;14.35;100.00
24031;BME280;12240;51.142;22.486;2023-03-23T17:34:41;98661.13;;;14.29;100.00
24031;BME280;12240;51.142;22.486;2023-03-23T17:37:10;98659.78;;;14.19;100.00
24031;BME280;12240;51.142;22.486;2023-03-23T17:39:39;98652.56;;;14.19;100.00
24031;BME280;12240;51.142;22.486;2023-03-23T17:42:10;98662.00;;;14.15;100.00
24031;BME280;12240;51.142;22.486;2023-03-23T17:44:40;98641.44;;;13.94;100.00
24031;BME280;12240;51.142;22.486;2023-03-23T17:47:09;98656.72;;;14.00;100.00
24031;BME280;12240;51.142;22.486;2023-03-23T17:49:38;98658.09;;;13.96;100.00
24031;BME280;12240;51.142;22.486;2023-03-23T17:52:07;98662.19;;;13.92;100.00
24031;BME280;12240;51.142;22.486;2023-03-23T17:54:35;98658.69;;;13.92;100.00
24031;BME280;12240;51.142;22.486;2023-03-23T17:57:05;98663.84;;;13.93;100.00
24031;BME280;12240;51.142;22.486;2023-03-23T17:59:33;98662.66;;;13.96;100.00
24031;BME280;12240;51.142;22.486;2023-03-23T18:02:02;98676.22;;;13.94;100.00
24031;BME280;12240;51.142;22.486;2023-03-23T18:04:33;98678.91;;;13.94;100.00
24031;BME280;12240;51.142;22.486;2023-03-23T18:08:59;98670.66;;;13.75;100.00
24031;BME280;12240;51.142;22.486;2023-03-23T18:11:29;98692.84;;;13.90;100.00
24031;BME280;12240;51.142;22.486;2023-03-23T18:14:03;98694.25;;;13.86;100.00
24031;BME280;12240;51.142;22.486;2023-03-23T18:16:32;98694.25;;;13.86;100.00
24031;BME280;12240;51.142;22.486;2023-03-23T18:19:04;98687.88;;;13.87;100.00
24031;BME280;12240;51.142;22.486;2023-03-23T18:21:35;98703.09;;;13.86;100.00
24031;BME280;12240;51.142;22.486;2023-03-23T18:24:10;98700.16;;;13.81;100.00
24031;BME280;12240;51.142;22.486;2023-03-23T18:26:39;98705.88;;;13.78;100.00
24031;BME280;12240;51.142;22.486;2023-03-23T18:29:17;98698.25;;;13.75;100.00
24031;BME280;12240;51.142;22.486;2023-03-23T18:31:45;98700.34;;;13.80;100.00
24031;BME280;12240;51.142;22.486;2023-03-23T18:34:19;98703.03;;;13.80;100.00
24031;BME280;12240;51.142;22.486;2023-03-23T18:36:48;98710.22;;;13.79;100.00
24031;BME280;12240;51.142;22.486;2023-03-23T18:39:25;98697.16;;;13.70;100.00
24031;BME280;12240;51.142;22.486;2023-03-23T18:41:54;98705.38;;;13.68;100.00
24031;BME280;12240;51.142;22.486;2023-03-23T18:44:24;98712.94;;;13.65;100.00
24031;BME280;12240;51.142;22.486;2023-03-23T18:46:56;98708.31;;;13.59;100.00
24031;BME280;12240;51.142;22.486;2023-03-23T18:49:25;98722.34;;;13.61;100.00
24031;BME280;12240;51.142;22.486;2023-03-23T18:51:55;98718.41;;;13.57;100.00
24031;BME280;12240;51.142;22.486;2023-03-23T18:54:24;98698.84;;;13.42;100.00
24031;BME280;12240;51.142;22.486;2023-03-23T18:56:53;98718.75;;;13.54;100.00
24031;BME280;12240;51.142;22.486;2023-03-23T18:59:27;98715.81;;;13.49;100.00
24031;BME280;12240;51.142;22.486;2023-03-23T19:01:57;98725.25;;;13.45;100.00
24031;BME280;12240;51.142;22.486;2023-03-23T19:04:26;98721.16;;;13.49;100.00
24031;BME280;12240;51.142;22.486;2023-03-23T19:06:59;98716.19;;;13.46;100.00
24031;BME280;12240;51.142;22.486;2023-03-23T19:09:32;98721.09;;;13.42;100.00
24031;BME280;12240;51.142;22.486;2023-03-23T19:12:04;98722.66;;;13.37;100.00
24031;BME280;12240;51.142;22.486;2023-03-23T19:14:34;98719.16;;;13.36;100.00
24031;BME280;12240;51.142;22.486;2023-03-23T19:17:03;98731.06;;;13.34;100.00
24031;BME280;12240;51.142;22.486;2023-03-23T19:19:32;98731.25;;;13.32;100.00
24031;BME280;12240;51.142;22.486;2023-03-23T19:22:01;98720.34;;;13.34;100.00
24031;BME280;12240;51.142;22.486;2023-03-23T19:24:30;98724.22;;;13.31;100.00
24031;BME280;12240;51.142;22.486;2023-03-23T19:26:59;98727.06;;;13.30;100.00
24031;BME280;12240;51.142;22.486;2023-03-23T19:29:28;98727.84;;;13.24;100.00
24031;BME280;12240;51.142;22.486;2023-03-23T19:31:57;98721.84;;;13.22;100.00
24031;BME280;12240;51.142;22.486;2023-03-23T19:34:27;98715.84;;;13.20;100.00
24031;BME280;12240;51.142;22.486;2023-03-23T19:36:57;98705.91;;;13.14;100.00
24031;BME280;12240;51.142;22.486;2023-03-23T19:39:33;98705.44;;;13.10;100.00
24031;BME280;12240;51.142;22.486;2023-03-23T19:42:03;98711.00;;;13.01;100.00
24031;BME280;12240;51.142;22.486;2023-03-23T19:44:32;98708.44;;;12.93;100.00
24031;BME280;12240;51.142;22.486;2023-03-23T19:47:02;98714.50;;;12.86;100.00
24031;BME280;12240;51.142;22.486;2023-03-23T19:49:30;98716.41;;;12.78;100.00
24031;BME280;12240;51.142;22.486;2023-03-23T19:51:59;98719.28;;;12.76;100.00
24031;BME280;12240;51.142;22.486;2023-03-23T19:54:37;98719.47;;;12.75;100.00
24031;BME280;12240;51.142;22.486;2023-03-23T19:57:07;98729.97;;;12.76;100.00
24031;BME280;12240;51.142;22.486;2023-03-23T19:59:37;98733.66;;;12.75;100.00
24031;BME280;12240;51.142;22.486;2023-03-23T20:02:08;98742.50;;;12.76;100.00
24031;BME280;12240;51.142;22.486;2023-03-23T20:04:38;98732.28;;;12.79;100.00
24031;BME280;12240;51.142;22.486;2023-03-23T20:07:07;98728.03;;;12.85;100.00
24031;BME280;12240;51.142;22.486;2023-03-23T20:09:36;98727.88;;;13.01;100.00
24031;BME280;12240;51.142;22.486;2023-03-23T20:12:05;98729.69;;;13.09;100.00
24031;BME280;12240;51.142;22.486;2023-03-23T20:14:34;98738.97;;;13.13;100.00
24031;BME280;12240;51.142;22.486;2023-03-23T20:17:04;98737.22;;;13.20;100.00
24031;BME280;12240;51.142;22.486;2023-03-23T20:19:37;98726.16;;;13.23;100.00
24031;BME280;12240;51.142;22.486;2023-03-23T20:22:07;98733.66;;;13.27;100.00
24031;BME280;12240;51.142;22.486;2023-03-23T20:24:36;98740.00;;;13.26;100.00
24031;BME280;12240;51.142;22.486;2023-03-23T20:27:05;98741.00;;;13.25;100.00
24031;BME280;12240;51.142;22.486;2023-03-23T20:29:35;98743.41;;;13.20;100.00
24031;BME280;12240;51.142;22.486;2023-03-23T20:32:04;98744.41;;;13.19;100.00
24031;BME280;12240;51.142;22.486;2023-03-23T20:34:34;98745.44;;;13.18;100.00
24031;BME280;12240;51.142;22.486;2023-03-23T20:37:03;98747.53;;;13.23;100.00
24031;BME280;12240;51.142;22.486;2023-03-23T20:39:32;98746.28;;;13.19;100.00
24031;BME280;12240;51.142;22.486;2023-03-23T20:42:01;98737.97;;;13.14;100.00
24031;BME280;12240;51.142;22.486;2023-03-23T20:44:33;98747.84;;;13.13;100.00
24031;BME280;12240;51.142;22.486;2023-03-23T20:47:06;98743.66;;;13.11;100.00
24031;BME280;12240;51.142;22.486;2023-03-23T20:49:36;98742.50;;;13.13;100.00
24031;BME280;12240;51.142;22.486;2023-03-23T20:52:07;98731.88;;;13.20;100.00
24031;BME280;12240;51.142;22.486;2023-03-23T20:54:36;98738.72;;;13.22;100.00
24031;BME280;12240;51.142;22.486;2023-03-23T20:57:05;98727.00;;;13.23;100.00
24031;BME280;12240;51.142;22.486;2023-03-23T20:59:35;98725.81;;;13.26;100.00
24031;BME280;12240;51.142;22.486;2023-03-23T21:02:04;98731.16;;;13.26;100.00
24031;BME280;12240;51.142;22.486;2023-03-23T21:04:33;98721.84;;;13.22;100.00
24031;BME280;12240;51.142;22.486;2023-03-23T21:07:04;98727.75;;;13.17;100.00
24031;BME280;12240;51.142;22.486;2023-03-23T21:09:33;98731.22;;;13.18;100.00
24031;BME280;12240;51.142;22.486;2023-03-23T21:12:05;98729.31;;;13.12;100.00
24031;BME280;12240;51.142;22.486;2023-03-23T21:14:34;98738.88;;;13.06;100.00
24031;BME280;12240;51.142;22.486;2023-03-23T21:17:05;98733.34;;;13.08;100.00
24031;BME280;12240;51.142;22.486;2023-03-23T21:19:35;98739.53;;;13.08;100.00
24031;BME280;12240;51.142;22.486;2023-03-23T21:22:04;98735.94;;;13.16;100.00
24031;BME280;12240;51.142;22.486;2023-03-23T21:24:32;98745.81;;;13.15;100.00
24031;BME280;12240;51.142;22.486;2023-03-23T21:27:04;98744.97;;;13.15;100.00
24031;BME280;12240;51.142;22.486;2023-03-23T21:29:33;98751.72;;;13.25;100.00
24031;BME280;12240;51.142;22.486;2023-03-23T21:32:01;98760.38;;;13.27;100.00
24031;BME280;12240;51.142;22.486;2023-03-23T21:34:36;98761.38;;;13.26;100.00
24031;BME280;12240;51.142;22.486;2023-03-23T21:37:05;98742.38;;;13.21;100.00
24031;BME280;12240;51.142;22.486;2023-03-23T21:39:33;98724.56;;;12.99;100.00
24031;BME280;12240;51.142;22.486;2023-03-23T21:42:02;98752.72;;;13.10;100.00
24031;BME280;12240;51.142;22.486;2023-03-23T21:44:34;98747.56;;;13.08;100.00
24031;BME280;12240;51.142;22.486;2023-03-23T21:47:06;98749.38;;;13.08;100.00
24031;BME280;12240;51.142;22.486;2023-03-23T21:49:36;98745.09;;;12.99;100.00
24031;BME280;12240;51.142;22.486;2023-03-23T21:52:08;98747.03;;;12.90;100.00
24031;BME280;12240;51.142;22.486;2023-03-23T21:58:09;98738.00;;;12.91;100.00
24031;BME280;12240;51.142;22.486;2023-03-23T22:00:38;98744.53;;;12.88;100.00
24031;BME280;12240;51.142;22.486;2023-03-23T22:03:07;98745.28;;;12.82;100.00
24031;BME280;12240;51.142;22.486;2023-03-23T22:05:39;98738.25;;;12.81;100.00
24031;BME280;12240;51.142;22.486;2023-03-23T22:08:08;98734.50;;;12.76;100.00
24031;BME280;12240;51.142;22.486;2023-03-23T22:10:40;98744.72;;;12.72;100.00
24031;BME280;12240;51.142;22.486;2023-03-23T22:13:55;98753.16;;;12.61;100.00
24031;BME280;12240;51.142;22.486;2023-03-23T22:16:25;98739.97;;;12.60;100.00
24031;BME280;12240;51.142;22.486;2023-03-23T22:18:54;98752.69;;;12.58;100.00
24031;BME280;12240;51.142;22.486;2023-03-23T22:21:27;98762.88;;;12.54;100.00
24031;BME280;12240;51.142;22.486;2023-03-23T22:23:58;98759.84;;;12.57;100.00
24031;BME280;12240;51.142;22.486;2023-03-23T22:26:28;98753.53;;;12.58;100.00
24031;BME280;12240;51.142;22.486;2023-03-23T22:28:58;98750.00;;;12.58;100.00
24031;BME280;12240;51.142;22.486;2023-03-23T22:31:30;98756.19;;;12.58;100.00
24031;BME280;12240;51.142;22.486;2023-03-23T22:34:01;98748.88;;;12.52;100.00
24031;BME280;12240;51.142;22.486;2023-03-23T22:36:30;98746.56;;;12.49;100.00
24031;BME280;12240;51.142;22.486;2023-03-23T22:39:00;98743.53;;;12.52;100.00
24031;BME280;12240;51.142;22.486;2023-03-23T22:53:43;98734.47;;;12.39;100.00
24031;BME280;12240;51.142;22.486;2023-03-23T22:56:12;98739.16;;;12.37;100.00
24031;BME280;12240;51.142;22.486;2023-03-23T22:58:40;98740.53;;;12.33;100.00
24031;BME280;12240;51.142;22.486;2023-03-23T23:01:13;98735.38;;;12.31;100.00
24031;BME280;12240;51.142;22.486;2023-03-23T23:03:43;98739.59;;;12.26;100.00
24031;BME280;12240;51.142;22.486;2023-03-23T23:06:13;98735.72;;;12.28;100.00
24031;BME280;12240;51.142;22.486;2023-03-23T23:08:42;98744.47;;;12.22;100.00
24031;BME280;12240;51.142;22.486;2023-03-23T23:11:14;98740.13;;;12.21;100.00
24031;BME280;12240;51.142;22.486;2023-03-23T23:13:44;98734.31;;;12.18;100.00
24031;BME280;12240;51.142;22.486;2023-03-23T23:16:13;98737.63;;;12.20;100.00
24031;BME280;12240;51.142;22.486;2023-03-23T23:18:45;98735.78;;;12.20;100.00
24031;BME280;12240;51.142;22.486;2023-03-23T23:21:18;98737.25;;;12.23;100.00
24031;BME280;12240;51.142;22.486;2023-03-23T23:23:47;98744.75;;;12.27;100.00
24031;BME280;12240;51.142;22.486;2023-03-23T23:26:18;98742.56;;;12.31;100.00
24031;BME280;12240;51.142;22.486;2023-03-23T23:33:07;98733.41;;;12.25;100.00
24031;BME280;12240;51.142;22.486;2023-03-23T23:38:59;98743.03;;;12.12;100.00
24031;BME280;12240;51.142;22.486;2023-03-23T23:41:28;98738.38;;;12.06;100.00
24031;BME280;12240;51.142;22.486;2023-03-23T23:43:58;98733.88;;;12.06;100.00
24031;BME280;12240;51.142;22.486;2023-03-23T23:46:27;98738.38;;;12.06;100.00
24031;BME280;12240;51.142;22.486;2023-03-23T23:48:58;98739.09;;;12.00;100.00
24031;BME280;12240;51.142;22.486;2023-03-23T23:51:27;98740.47;;;11.96;100.00
24031;BME280;12240;51.142;22.486;2023-03-23T23:53:56;98741.97;;;11.90;100.00
24031;BME280;12240;51.142;22.486;2023-03-23T23:56:28;98735.38;;;11.86;100.00
24031;BME280;12240;51.142;22.486;2023-03-23T23:59:09;98748.03;;;11.84;100.00
